createdAt,value
2022-11-27T00:01:24.592Z,32.95
2022-11-27T00:03:51.565Z,20.27
2022-11-27T00:06:21.114Z,22.40
2022-11-27T00:08:49.069Z,27.05
2022-11-27T00:11:19.199Z,25.98
2022-11-27T00:13:46.963Z,28.98
2022-11-27T00:16:14.830Z,29.27
2022-11-27T00:18:44.823Z,24.65
2022-11-27T00:21:19.356Z,31.63
2022-11-27T00:23:46.113Z,28.85
2022-11-27T00:26:13.365Z,28.13
2022-11-27T00:28:40.799Z,24.10
2022-11-27T00:31:15.638Z,35.03
2022-11-27T00:33:42.718Z,31.00
2022-11-27T00:36:11.018Z,27.75
2022-11-27T00:38:42.377Z,25.20
2022-11-27T00:41:17.726Z,27.53
2022-11-27T00:43:45.658Z,26.27
2022-11-27T00:46:25.368Z,29.45
2022-11-27T00:48:55.421Z,36.78
2022-11-27T00:51:24.192Z,24.75
2022-11-27T00:53:51.543Z,24.20
2022-11-27T00:56:21.377Z,22.83
2022-11-27T00:58:48.129Z,31.52
2022-11-27T01:01:23.529Z,35.35
2022-11-27T01:03:53.573Z,24.45
2022-11-27T01:06:20.905Z,27.23
2022-11-27T01:08:48.492Z,30.00
2022-11-27T01:11:18.610Z,28.48
2022-11-27T01:13:48.353Z,35.30
2022-11-27T01:16:19.387Z,35.50
2022-11-27T01:18:48.943Z,22.02
2022-11-27T01:21:19.553Z,53.45
2022-11-27T01:23:47.569Z,27.85
2022-11-27T01:26:20.388Z,23.23
2022-11-27T01:28:48.234Z,29.30
2022-11-27T01:31:17.921Z,30.50
2022-11-27T01:33:47.054Z,27.17
2022-11-27T01:36:15.940Z,27.83
2022-11-27T01:38:42.883Z,24.98
2022-11-27T01:41:15.461Z,27.38
2022-11-27T01:43:46.991Z,27.38
2022-11-27T01:46:22.809Z,27.80
2022-11-27T01:48:54.091Z,31.73
2022-11-27T01:51:22.280Z,24.45
2022-11-27T01:53:50.813Z,27.67
2022-11-27T01:56:20.115Z,22.85
2022-11-27T01:58:47.274Z,32.58
2022-11-27T02:01:14.407Z,31.42
2022-11-27T02:03:41.372Z,28.10
2022-11-27T02:06:13.372Z,27.27
2022-11-27T02:08:41.862Z,21.55
2022-11-27T02:11:36.689Z,23.40
2022-11-27T02:14:25.998Z,21.58
2022-11-27T02:17:28.805Z,23.63
2022-11-27T02:20:17.516Z,23.98
2022-11-27T02:23:06.230Z,31.08
2022-11-27T02:25:35.926Z,23.75
2022-11-27T02:28:18.541Z,22.73
2022-11-27T02:30:55.294Z,26.75
2022-11-27T02:33:23.645Z,35.97
2022-11-27T02:36:07.748Z,37.63
2022-11-27T02:39:16.885Z,25.63
2022-11-27T02:42:09.066Z,32.13
2022-11-27T02:44:41.925Z,29.63
2022-11-27T02:47:10.292Z,31.10
2022-11-27T02:49:39.953Z,32.83
2022-11-27T02:52:08.119Z,20.25
2022-11-27T02:54:36.018Z,47.28
2022-11-27T02:57:05.009Z,27.88
2022-11-27T02:59:34.389Z,29.02
2022-11-27T03:02:08.351Z,24.58
2022-11-27T03:04:44.244Z,21.20
2022-11-27T03:07:23.394Z,21.52
2022-11-27T03:09:54.099Z,19.05
2022-11-27T03:12:21.138Z,26.20
2022-11-27T03:14:48.959Z,33.22
2022-11-27T03:17:29.770Z,26.85
2022-11-27T03:20:18.035Z,27.02
2022-11-27T03:22:46.776Z,31.63
2022-11-27T03:25:13.791Z,21.63
2022-11-27T03:27:50.473Z,25.73
2022-11-27T03:30:17.641Z,26.40
2022-11-27T03:32:44.588Z,27.90
2022-11-27T03:35:15.297Z,28.95
2022-11-27T03:37:42.542Z,31.65
2022-11-27T03:40:10.597Z,23.70
2022-11-27T03:42:58.607Z,37.83
2022-11-27T03:45:58.280Z,24.33
2022-11-27T03:48:43.562Z,31.27
2022-11-27T03:51:27.962Z,24.95
2022-11-27T03:54:23.398Z,35.00
2022-11-27T03:57:10.929Z,33.03
2022-11-27T03:59:40.896Z,30.63
2022-11-27T04:02:14.319Z,25.52
2022-11-27T04:04:41.580Z,37.17
2022-11-27T04:07:17.249Z,22.95
2022-11-27T04:09:44.067Z,28.33
2022-11-27T04:12:10.859Z,35.63
2022-11-27T04:14:37.742Z,25.60
2022-11-27T04:17:04.774Z,28.23
2022-11-27T04:19:31.595Z,20.98
2022-11-27T04:21:58.797Z,32.65
2022-11-27T04:24:25.562Z,31.88
2022-11-27T04:26:52.346Z,26.77
2022-11-27T04:29:19.349Z,27.92
2022-11-27T04:31:46.160Z,32.30
2022-11-27T04:34:12.947Z,26.50
2022-11-27T04:36:39.857Z,22.05
2022-11-27T04:39:06.640Z,26.60
2022-11-27T04:41:33.392Z,28.30
2022-11-27T04:44:00.171Z,28.58
2022-11-27T04:46:27.657Z,22.73
2022-11-27T04:48:54.423Z,34.22
2022-11-27T04:51:21.167Z,30.25
2022-11-27T04:53:48.056Z,25.67
2022-11-27T04:56:15.105Z,28.20
2022-11-27T04:58:41.975Z,21.83
2022-11-27T05:01:09.395Z,29.17
2022-11-27T05:03:36.525Z,27.88
2022-11-27T05:06:03.473Z,20.88
2022-11-27T05:08:33.079Z,32.45
2022-11-27T05:11:28.207Z,25.75
2022-11-27T05:14:15.184Z,24.63
2022-11-27T05:16:46.927Z,24.63
2022-11-27T05:19:15.143Z,28.67
2022-11-27T05:21:42.427Z,22.83
2022-11-27T05:24:10.568Z,29.92
2022-11-27T05:26:38.937Z,26.58
2022-11-27T05:29:07.221Z,24.40
2022-11-27T05:31:34.372Z,27.30
2022-11-27T05:34:01.524Z,18.27
2022-11-27T05:36:29.407Z,25.90
2022-11-27T05:38:56.268Z,21.73
2022-11-27T05:41:23.652Z,26.27
2022-11-27T05:43:50.498Z,25.48
2022-11-27T05:46:24.660Z,25.77
2022-11-27T05:48:51.847Z,17.15
2022-11-27T05:51:18.985Z,28.90
2022-11-27T05:53:46.160Z,30.48
2022-11-27T05:56:16.301Z,34.50
2022-11-27T05:58:44.760Z,25.27
2022-11-27T06:01:14.514Z,28.10
2022-11-27T06:03:43.398Z,25.58
2022-11-27T06:06:17.577Z,27.38
2022-11-27T06:08:45.577Z,20.73
2022-11-27T06:11:15.523Z,24.65
2022-11-27T06:13:43.142Z,39.50
2022-11-27T06:16:18.930Z,30.63
2022-11-27T06:18:48.627Z,27.98
2022-11-27T06:21:15.778Z,22.25
2022-11-27T06:23:43.611Z,27.67
2022-11-27T06:26:17.194Z,27.70
2022-11-27T06:28:44.443Z,26.17
2022-11-27T06:31:17.748Z,18.67
2022-11-27T06:33:51.405Z,35.45
2022-11-27T06:36:18.752Z,21.10
2022-11-27T06:38:49.126Z,25.60
2022-11-27T06:41:21.669Z,22.98
2022-11-27T06:43:48.592Z,22.88
2022-11-27T06:46:20.253Z,18.25
2022-11-27T06:48:49.292Z,27.13
2022-11-27T06:51:19.073Z,27.73
2022-11-27T06:53:45.939Z,29.42
2022-11-27T06:56:15.572Z,30.45
2022-11-27T06:58:43.243Z,19.05
2022-11-27T07:01:14.059Z,16.17
2022-11-27T07:03:41.497Z,25.15
2022-11-27T07:06:11.773Z,30.67
2022-11-27T07:08:41.487Z,25.55
2022-11-27T07:11:12.222Z,29.23
2022-11-27T07:13:39.094Z,26.85
2022-11-27T07:16:09.012Z,28.83
2022-11-27T07:18:41.875Z,26.42
2022-11-27T07:21:09.771Z,35.67
2022-11-27T07:23:37.593Z,38.25
2022-11-27T07:26:13.231Z,31.45
2022-11-27T07:28:43.851Z,20.15
2022-11-27T07:31:13.604Z,24.98
2022-11-27T07:33:40.603Z,20.67
2022-11-27T07:36:22.331Z,31.88
2022-11-27T07:38:49.478Z,29.27
2022-11-27T07:41:17.135Z,20.42
2022-11-27T07:43:45.420Z,23.30
2022-11-27T07:46:18.404Z,24.98
2022-11-27T07:48:45.313Z,23.02
2022-11-27T07:51:14.800Z,18.58
2022-11-27T07:53:42.309Z,16.55
2022-11-27T07:56:11.839Z,32.05
2022-11-27T07:58:38.744Z,24.02
2022-11-27T08:01:11.338Z,20.83
2022-11-27T08:03:38.683Z,26.20
2022-11-27T08:06:13.132Z,18.05
2022-11-27T08:08:39.893Z,19.70
2022-11-27T08:11:06.729Z,24.48
2022-11-27T08:13:33.594Z,13.52
2022-11-27T08:16:00.483Z,28.20
2022-11-27T08:18:27.313Z,24.98
2022-11-27T08:20:54.255Z,22.60
2022-11-27T08:23:21.282Z,21.38
2022-11-27T08:25:48.790Z,29.98
2022-11-27T08:28:15.601Z,15.82
2022-11-27T08:30:42.377Z,22.02
2022-11-27T08:33:10.563Z,26.58
2022-11-27T08:35:39.718Z,28.95
2022-11-27T08:38:06.690Z,18.77
2022-11-27T08:40:33.493Z,23.08
2022-11-27T08:43:00.316Z,23.05
2022-11-27T08:45:27.066Z,23.48
2022-11-27T08:47:53.841Z,24.27
2022-11-27T08:50:20.759Z,20.63
2022-11-27T08:52:47.576Z,23.80
2022-11-27T08:55:17.140Z,26.50
2022-11-27T08:57:43.881Z,16.63
2022-11-27T09:00:13.722Z,20.88
2022-11-27T09:02:41.562Z,22.08
2022-11-27T09:05:09.894Z,30.38
2022-11-27T09:07:36.799Z,18.48
2022-11-27T09:10:03.967Z,21.63
2022-11-27T09:12:30.842Z,33.38
2022-11-27T09:14:57.884Z,17.83
2022-11-27T09:17:24.860Z,21.45
2022-11-27T09:19:51.898Z,27.90
2022-11-27T09:22:19.226Z,27.13
2022-11-27T09:24:47.350Z,21.55
2022-11-27T09:27:15.326Z,22.15
2022-11-27T09:29:42.154Z,28.27
2022-11-27T09:32:09.047Z,19.80
2022-11-27T09:34:37.597Z,26.10
2022-11-27T09:37:05.352Z,16.27
2022-11-27T09:39:34.146Z,22.92
2022-11-27T09:42:06.459Z,23.13
2022-11-27T09:47:27.696Z,23.90
2022-11-27T09:50:01.982Z,25.10
2022-11-27T09:52:40.535Z,19.65
2022-11-27T09:55:34.038Z,22.38
2022-11-27T09:58:26.839Z,18.00
2022-11-27T10:00:53.690Z,18.40
2022-11-27T10:03:25.933Z,18.65
2022-11-27T10:08:39.769Z,22.80
2022-11-27T10:11:21.138Z,20.48
2022-11-27T10:14:25.380Z,17.52
2022-11-27T10:17:09.918Z,23.58
2022-11-27T10:19:43.955Z,24.17
2022-11-27T10:22:24.042Z,14.88
2022-11-27T10:25:14.640Z,22.77
2022-11-27T10:28:03.860Z,17.92
2022-11-27T10:30:33.193Z,19.23
2022-11-27T10:33:02.386Z,19.63
2022-11-27T10:35:32.431Z,24.25
2022-11-27T10:38:17.299Z,14.95
2022-11-27T10:40:54.690Z,12.57
2022-11-27T10:43:25.468Z,16.48
2022-11-27T10:46:11.198Z,17.92
2022-11-27T10:48:38.158Z,20.83
2022-11-27T10:51:17.619Z,15.57
2022-11-27T10:53:48.689Z,14.60
2022-11-27T10:56:34.102Z,14.82
2022-11-27T10:59:05.348Z,24.58
2022-11-27T11:01:45.038Z,15.68
2022-11-27T11:04:36.845Z,12.82
2022-11-27T11:07:02.904Z,15.00
2022-11-27T11:09:32.935Z,13.75
2022-11-27T11:12:18.958Z,13.20
2022-11-27T11:15:00.143Z,12.90
2022-11-27T11:17:30.677Z,20.65
2022-11-27T11:22:28.549Z,14.82
2022-11-27T11:24:55.493Z,16.40
2022-11-27T11:27:31.149Z,16.77
2022-11-27T11:30:04.812Z,13.13
2022-11-27T11:32:35.175Z,17.50
2022-11-27T11:35:25.961Z,33.20
2022-11-27T11:37:53.985Z,17.27
2022-11-27T11:40:31.164Z,17.17
2022-11-27T11:43:00.574Z,14.52
2022-11-27T11:45:33.586Z,14.82
2022-11-27T11:48:03.533Z,16.13
2022-11-27T11:50:34.542Z,13.75
2022-11-27T11:53:12.446Z,12.40
2022-11-27T11:55:41.977Z,19.75
2022-11-27T11:58:22.082Z,16.38
2022-11-27T12:03:59.457Z,20.45
2022-11-27T12:06:42.792Z,21.52
2022-11-27T12:09:25.168Z,19.95
2022-11-27T12:11:58.036Z,11.13
2022-11-27T12:14:39.184Z,15.05
2022-11-27T12:17:18.350Z,25.60
2022-11-27T12:20:01.077Z,22.05
2022-11-27T12:22:44.717Z,24.45
2022-11-27T12:25:52.170Z,17.70
2022-11-27T12:28:54.559Z,12.50
2022-11-27T12:31:47.365Z,8.98
2022-11-27T12:34:26.345Z,8.63
2022-11-27T12:36:59.440Z,14.77
2022-11-27T12:39:32.151Z,6.53
2022-11-27T12:42:16.681Z,8.52
2022-11-27T13:17:03.721Z,3.95
2022-11-27T13:19:51.596Z,6.35
2022-11-27T13:22:38.647Z,4.50
2022-11-27T13:25:27.657Z,4.03
2022-11-27T13:28:45.802Z,5.43
2022-11-27T13:31:40.092Z,3.90
2022-11-27T13:34:29.823Z,8.40
2022-11-27T13:37:36.814Z,2.40
2022-11-27T13:40:31.223Z,1.67
2022-11-27T13:43:33.220Z,2.67
2022-11-27T13:46:26.657Z,3.28
2022-11-27T13:49:28.159Z,3.03
2022-11-27T13:52:16.731Z,2.70
2022-11-27T13:55:07.666Z,1.95
2022-11-27T13:57:34.588Z,3.15
2022-11-27T14:00:16.563Z,4.47
2022-11-27T14:02:51.058Z,5.15
2022-11-27T14:05:20.686Z,1.92
2022-11-27T14:07:55.122Z,7.57
2022-11-27T14:10:26.001Z,2.75
2022-11-27T14:12:58.207Z,2.95
2022-11-27T14:15:27.176Z,2.65
2022-11-27T14:18:10.230Z,8.85
2022-11-27T14:20:47.930Z,5.70
2022-11-27T14:23:26.005Z,2.22
2022-11-27T14:26:02.478Z,2.30
2022-11-27T14:28:30.857Z,2.17
2022-11-27T14:31:00.325Z,4.85
2022-11-27T14:33:33.278Z,8.68
2022-11-27T14:36:07.218Z,5.03
2022-11-27T14:38:35.443Z,7.85
2022-11-27T14:41:17.244Z,6.57
2022-11-27T14:43:44.019Z,2.45
2022-11-27T14:46:19.504Z,7.85
2022-11-27T14:48:57.249Z,4.28
2022-11-27T14:51:27.033Z,8.80
2022-11-27T14:54:07.509Z,7.95
2022-11-27T14:56:37.510Z,10.07
2022-11-27T14:59:04.742Z,8.63
2022-11-27T15:01:33.730Z,5.35
2022-11-27T15:04:06.041Z,6.47
2022-11-27T15:06:47.178Z,12.20
2022-11-27T15:09:35.361Z,5.85
2022-11-27T15:12:15.571Z,6.65
2022-11-27T15:14:57.051Z,7.90
2022-11-27T15:17:30.093Z,9.52
2022-11-27T15:19:58.138Z,8.82
2022-11-27T15:22:24.919Z,9.80
2022-11-27T15:25:06.324Z,8.02
2022-11-27T15:27:45.646Z,6.95
2022-11-27T15:30:18.932Z,6.53
2022-11-27T15:32:53.583Z,8.18
2022-11-27T15:35:36.295Z,6.18
2022-11-27T15:38:10.990Z,12.85
2022-11-27T15:40:40.089Z,14.93
2022-11-27T15:43:12.579Z,10.88
2022-11-27T15:45:40.222Z,17.40
2022-11-27T15:48:19.374Z,14.07
2022-11-27T15:50:51.488Z,13.73
2022-11-27T15:53:18.606Z,10.40
2022-11-27T15:55:45.599Z,6.65
2022-11-27T15:58:12.238Z,4.20
2022-11-27T16:00:39.890Z,7.70
2022-11-27T16:03:06.583Z,14.52
2022-11-27T16:05:33.252Z,7.38
2022-11-27T16:07:59.972Z,7.68
2022-11-27T16:10:26.599Z,9.00
2022-11-27T16:12:55.590Z,5.22
2022-11-27T16:15:23.495Z,5.10
2022-11-27T16:17:50.779Z,5.65
2022-11-27T16:20:17.851Z,3.75
2022-11-27T16:22:45.569Z,42.17
2022-11-27T16:25:12.319Z,13.55
2022-11-27T16:27:39.035Z,6.07
2022-11-27T16:30:06.807Z,6.70
2022-11-27T16:32:37.466Z,8.13
2022-11-27T16:35:07.568Z,11.30
2022-11-27T16:37:34.187Z,6.65
2022-11-27T16:40:01.803Z,11.70
2022-11-27T16:42:28.850Z,9.65
2022-11-27T16:44:55.442Z,13.35
2022-11-27T16:47:22.119Z,6.40
2022-11-27T16:49:49.607Z,11.82
2022-11-27T16:52:17.112Z,15.80
2022-11-27T16:54:44.160Z,10.40
2022-11-27T16:57:10.809Z,10.23
2022-11-27T16:59:38.436Z,11.43
2022-11-27T17:02:05.938Z,10.30
2022-11-27T17:04:33.569Z,8.93
2022-11-27T17:07:00.683Z,11.18
2022-11-27T17:09:29.430Z,8.90
2022-11-27T17:11:56.140Z,10.35
2022-11-27T17:14:22.787Z,12.73
2022-11-27T17:16:49.583Z,12.73
2022-11-27T17:19:17.175Z,10.00
2022-11-27T17:21:44.297Z,16.23
2022-11-27T17:24:15.300Z,15.88
2022-11-27T17:26:43.549Z,14.80
2022-11-27T17:29:18.210Z,10.63
2022-11-27T17:31:45.200Z,9.98
2022-11-27T17:34:13.649Z,15.02
2022-11-27T17:36:43.006Z,11.05
2022-11-27T17:39:10.996Z,14.63
2022-11-27T17:41:40.112Z,12.23
2022-11-27T17:44:07.402Z,17.10
2022-11-27T17:46:34.716Z,19.15
2022-11-27T17:49:02.872Z,14.27
2022-11-27T17:51:31.625Z,12.98
2022-11-27T17:54:02.534Z,19.65
2022-11-27T17:56:30.070Z,10.65
2022-11-27T17:58:56.844Z,12.05
2022-11-27T18:01:26.601Z,17.70
2022-11-27T18:03:59.859Z,15.63
2022-11-27T18:06:27.185Z,12.20
2022-11-27T18:08:56.081Z,6.50
2022-11-27T18:11:24.643Z,18.83
2022-11-27T18:13:51.456Z,11.75
2022-11-27T18:16:22.092Z,6.53
2022-11-27T18:18:49.710Z,11.80
2022-11-27T18:21:21.044Z,17.15
2022-11-27T18:24:21.204Z,19.30
2022-11-27T18:27:06.642Z,11.95
2022-11-27T18:29:23.430Z,18.02
2022-11-27T18:31:51.147Z,10.57
2022-11-27T18:34:18.045Z,15.70
2022-11-27T18:36:46.111Z,13.40
2022-11-27T18:39:13.131Z,13.98
2022-11-27T18:41:39.929Z,13.77
2022-11-27T18:44:06.758Z,10.95
2022-11-27T18:46:33.784Z,16.70
2022-11-27T18:49:00.426Z,27.25
2022-11-27T18:51:27.191Z,14.88
2022-11-27T18:53:54.658Z,14.68
2022-11-27T18:56:27.693Z,13.70
2022-11-27T18:58:54.977Z,18.02
2022-11-27T19:01:27.289Z,17.45
2022-11-27T19:03:54.491Z,13.50
2022-11-27T19:06:23.662Z,13.18
2022-11-27T19:08:50.491Z,6.78
2022-11-27T19:11:20.347Z,4.10
2022-11-27T19:13:48.216Z,6.88
2022-11-27T19:16:17.959Z,2.17
2022-11-27T19:18:44.782Z,4.65
2022-11-27T19:21:20.069Z,4.05
2022-11-27T19:23:47.806Z,4.20
2022-11-27T19:26:17.795Z,3.90
2022-11-27T19:28:45.706Z,2.05
2022-11-27T19:31:13.706Z,2.25
2022-11-27T19:33:40.814Z,2.15
2022-11-27T19:36:10.609Z,2.60
2022-11-27T19:38:40.280Z,3.20
2022-11-27T19:41:12.107Z,4.55
2022-11-27T19:43:38.767Z,4.60
2022-11-27T19:46:23.919Z,6.72
2022-11-27T19:48:54.039Z,5.10
2022-11-27T19:51:20.727Z,5.60
2022-11-27T19:53:47.659Z,7.53
2022-11-27T19:56:14.352Z,6.10
2022-11-27T19:58:41.306Z,11.40
2022-11-27T20:01:16.796Z,17.83
2022-11-27T20:03:44.238Z,9.68
2022-11-27T20:06:16.389Z,6.70
2022-11-27T20:08:45.785Z,5.97
2022-11-27T20:11:15.451Z,7.55
2022-11-27T20:13:42.497Z,6.80
2022-11-27T20:16:14.964Z,7.40
2022-11-27T20:18:42.029Z,17.92
2022-11-27T20:21:14.812Z,15.43
2022-11-27T20:23:42.801Z,21.80
2022-11-27T20:26:12.492Z,17.23
2022-11-27T20:28:41.301Z,16.38
2022-11-27T20:31:14.206Z,10.48
2022-11-27T20:33:41.023Z,4.57
2022-11-27T20:36:19.070Z,7.72
2022-11-27T20:38:46.825Z,9.35
2022-11-27T20:41:16.140Z,7.57
2022-11-27T20:43:44.416Z,12.90
2022-11-27T20:46:16.140Z,10.45
2022-11-27T20:48:46.624Z,7.70
2022-11-27T20:51:16.453Z,6.78
2022-11-27T20:53:44.842Z,6.55
2022-11-27T20:56:13.075Z,10.07
2022-11-27T20:58:41.801Z,7.68
2022-11-27T21:01:18.416Z,8.32
2022-11-27T21:03:47.220Z,9.77
2022-11-27T21:06:15.004Z,9.38
2022-11-27T21:08:42.039Z,15.23
2022-11-27T21:11:30.126Z,9.18
2022-11-27T21:14:00.082Z,14.10
2022-11-27T21:16:30.535Z,6.63
2022-11-27T21:18:59.866Z,11.98
2022-11-27T21:21:28.491Z,12.98
2022-11-27T21:23:55.681Z,13.85
2022-11-27T21:26:23.298Z,13.48
2022-11-27T21:28:50.382Z,11.15
2022-11-27T21:31:19.705Z,27.05
2022-11-27T21:33:48.755Z,10.02
2022-11-27T21:36:16.405Z,16.70
2022-11-27T21:38:43.727Z,10.50
2022-11-27T21:41:13.776Z,13.27
2022-11-27T21:43:41.477Z,12.57
2022-11-27T21:46:09.966Z,7.70
2022-11-27T21:48:36.685Z,14.55
2022-11-27T21:51:04.526Z,6.85
2022-11-27T21:53:32.307Z,12.70
2022-11-27T21:55:59.381Z,10.88
2022-11-27T21:58:26.047Z,7.45
2022-11-27T22:00:52.770Z,12.93
2022-11-27T22:03:19.435Z,21.00
2022-11-27T22:05:46.042Z,20.90
2022-11-27T22:08:12.719Z,14.88
2022-11-27T22:10:40.705Z,11.23
2022-11-27T22:13:07.349Z,17.05
2022-11-27T22:15:36.190Z,14.35
2022-11-27T22:18:02.888Z,12.57
2022-11-27T22:20:29.548Z,12.02
2022-11-27T22:22:57.121Z,9.18
2022-11-27T22:25:23.819Z,12.68
2022-11-27T22:27:50.400Z,14.20
2022-11-27T22:30:17.377Z,15.25
2022-11-27T22:32:44.057Z,12.77
2022-11-27T22:35:12.736Z,13.15
2022-11-27T22:37:39.317Z,20.95
2022-11-27T22:40:06.837Z,19.83
2022-11-27T22:42:33.499Z,10.20
2022-11-27T22:45:00.112Z,10.73
2022-11-27T22:47:26.724Z,13.75
2022-11-27T22:49:53.325Z,16.52
2022-11-27T22:52:19.948Z,17.98
2022-11-27T22:54:46.527Z,13.32
2022-11-27T22:57:14.570Z,12.68
2022-11-27T22:59:41.440Z,17.10
2022-11-27T23:02:08.262Z,13.35
2022-11-27T23:04:35.946Z,20.17
2022-11-27T23:07:02.803Z,14.90
2022-11-27T23:09:29.744Z,11.90
2022-11-27T23:11:57.338Z,16.92
2022-11-27T23:14:25.502Z,13.30
2022-11-27T23:16:52.253Z,20.90
2022-11-27T23:19:18.896Z,18.02
2022-11-27T23:21:45.652Z,14.90
2022-11-27T23:24:15.272Z,16.20
2022-11-27T23:26:42.865Z,9.73
2022-11-27T23:29:09.555Z,15.10
2022-11-27T23:31:38.212Z,12.52
2022-11-27T23:34:08.048Z,12.18
2022-11-27T23:36:35.514Z,20.58
2022-11-27T23:39:05.025Z,10.60
2022-11-27T23:41:36.259Z,13.10
2022-11-27T23:44:02.857Z,11.27
2022-11-27T23:46:30.343Z,11.93
2022-11-27T23:48:59.547Z,10.85
2022-11-27T23:51:30.541Z,14.30
2022-11-27T23:53:57.718Z,9.30
2022-11-27T23:56:27.539Z,11.43
2022-11-27T23:58:55.854Z,16.10
